Time;durP1;ratioP1;P1;durP2;ratioP2;P2;SDS_P1;SDS_P2;PMS_P1;PMS_P2;Temp;Humidity;BMP_temperature;BMP_pressure;BME280_temperature;BME280_humidity;BME280_pressure;Samples;Min_cycle;Max_cycle;Signal;HPM_P1;HPM_P2
2022/04/25 00:01:36;;;;;;;10.10;5.30;;;;;;;8.14;77.26;100760.03;5109086;28;20055;-70
2022/04/25 00:04:03;;;;;;;12.15;5.28;;;;;;;8.08;77.88;100764.25;5108844;28;20036;-70
2022/04/25 00:06:29;;;;;;;10.85;5.15;;;;;;;8.00;77.66;100756.38;5108993;28;21012;-70
2022/04/25 00:08:55;;;;;;;10.75;5.15;;;;;;;7.93;78.20;100757.28;5107823;28;20640;-70
2022/04/25 00:11:20;;;;;;;12.32;5.38;;;;;;;7.89;78.68;100754.19;5108738;28;20047;-70
2022/04/25 00:13:46;;;;;;;9.38;5.25;;;;;;;7.86;78.35;100759.88;5108747;28;20084;-70
2022/04/25 00:16:12;;;;;;;11.30;5.78;;;;;;;7.81;78.87;100759.56;5108520;28;20370;-70
2022/04/25 00:18:37;;;;;;;14.38;5.40;;;;;;;7.75;78.99;100763.75;5109380;28;20125;-70
2022/04/25 00:21:03;;;;;;;12.70;5.32;;;;;;;7.74;79.49;100769.25;5112574;28;20028;-70
2022/04/25 00:23:29;;;;;;;13.43;6.72;;;;;;;7.69;79.70;100769.78;5112630;28;20053;-70
2022/04/25 00:25:54;;;;;;;14.55;5.95;;;;;;;7.63;79.75;100767.88;5112743;28;20028;-70
2022/04/25 00:28:19;;;;;;;11.00;7.10;;;;;;;7.58;79.39;100764.94;5112678;28;20031;-70
2022/04/25 00:30:47;;;;;;;12.82;5.90;;;;;;;7.55;79.66;100767.94;5112628;28;20058;-70
2022/04/25 00:33:13;;;;;;;12.75;5.28;;;;;;;7.51;80.00;100766.63;5112729;28;20019;-70
2022/04/25 00:35:38;;;;;;;15.10;6.63;;;;;;;7.45;80.09;100754.91;5112222;28;20110;-70
2022/04/25 00:38:04;;;;;;;10.50;5.72;;;;;;;7.47;80.61;100771.47;5111862;28;20505;-70
2022/04/25 00:40:29;;;;;;;18.05;6.53;;;;;;;7.39;80.65;100761.75;5112598;28;20070;-70
2022/04/25 00:42:54;;;;;;;11.20;5.57;;;;;;;7.39;80.82;100766.25;5111133;28;20031;-70
2022/04/25 00:45:20;;;;;;;10.88;5.47;;;;;;;7.30;81.02;100757.50;5111800;28;20034;-70
2022/04/25 00:47:46;;;;;;;10.38;5.97;;;;;;;7.31;81.03;100769.78;5111651;28;20067;-70
2022/04/25 00:50:13;;;;;;;12.13;5.35;;;;;;;7.27;81.07;100768.47;5110705;28;20078;-70
2022/04/25 00:52:39;;;;;;;12.70;5.47;;;;;;;7.22;81.26;100762.88;5112205;28;20031;-70
2022/04/25 00:55:07;;;;;;;12.63;5.68;;;;;;;7.17;81.22;100757.28;5112122;28;20026;-70
2022/04/25 00:57:33;;;;;;;13.82;5.55;;;;;;;7.17;81.67;100763.38;5092488;28;20375;-70
2022/04/25 00:59:59;;;;;;;17.00;8.25;;;;;;;7.14;81.55;100762.94;5092659;28;20062;-70
2022/04/25 01:02:26;;;;;;;11.52;6.00;;;;;;;7.13;81.99;100761.28;5092648;28;20110;-70
2022/04/25 01:04:53;;;;;;;11.00;5.57;;;;;;;7.07;82.04;100760.16;5111927;28;20069;-70
2022/04/25 01:07:18;;;;;;;13.23;6.40;;;;;;;7.02;82.16;100767.78;5111837;28;20478;-70
2022/04/25 01:09:44;;;;;;;12.63;6.20;;;;;;;6.99;82.75;100768.16;5111980;28;20088;-70
2022/04/25 01:12:09;;;;;;;9.63;5.70;;;;;;;6.91;82.24;100761.06;5105205;28;20078;-70
2022/04/25 01:14:34;;;;;;;10.02;5.40;;;;;;;6.87;82.72;100761.63;5108991;28;20042;-70
2022/04/25 01:17:00;;;;;;;12.93;5.93;;;;;;;6.88;83.03;100772.03;5111676;28;20030;-70
2022/04/25 01:19:26;;;;;;;14.25;6.43;;;;;;;6.87;82.99;100769.56;5111792;28;20047;-70
2022/04/25 01:22:14;;;;;;;15.45;8.38;;;;;;;6.81;82.78;100771.06;5111792;28;20027;-70
2022/04/25 01:27:23;;;;;;;8.38;5.40;;;;;;;6.67;83.39;100758.56;5092241;28;20047;-70
2022/04/25 01:29:52;;;;;;;11.80;6.28;;;;;;;6.69;83.97;100772.47;5091922;28;20032;-70
2022/04/25 01:32:19;;;;;;;16.55;6.85;;;;;;;6.66;83.92;100762.22;5091996;28;20039;-70
2022/04/25 01:34:44;;;;;;;11.68;6.28;;;;;;;6.64;84.03;100764.22;5091991;28;20039;-70
2022/04/25 01:37:11;;;;;;;12.25;6.53;;;;;;;6.61;84.32;100770.69;5099878;28;20028;-70
2022/04/25 01:39:43;;;;;;;13.60;7.38;;;;;;;6.58;84.67;100763.91;5111149;28;20498;-70
2022/04/25 01:42:08;;;;;;;14.40;6.53;;;;;;;6.56;84.42;100760.59;5112025;28;20054;-70
2022/04/25 01:44:35;;;;;;;18.20;7.78;;;;;;;6.53;84.44;100760.94;5111598;28;20367;-70
2022/04/25 01:47:01;;;;;;;12.48;6.38;;;;;;;6.53;84.82;100763.59;5091366;28;20047;-70
2022/04/25 01:49:26;;;;;;;15.48;6.68;;;;;;;6.47;84.87;100756.34;5109052;28;20390;-70
2022/04/25 01:51:52;;;;;;;13.38;6.90;;;;;;;6.50;84.84;100763.13;5111089;28;20118;-70
2022/04/25 01:54:25;;;;;;;14.98;7.03;;;;;;;6.43;85.09;100756.84;5098862;28;20027;-70
2022/04/25 01:56:51;;;;;;;14.27;7.07;;;;;;;6.43;85.44;100765.63;5110584;28;20050;-70
2022/04/25 01:59:16;;;;;;;15.25;8.40;;;;;;;6.38;85.32;100760.00;5110982;28;20624;-70
2022/04/25 02:01:43;;;;;;;12.35;6.32;;;;;;;6.36;85.62;100759.34;5110979;28;20596;-70
2022/04/25 02:04:08;;;;;;;18.50;8.25;;;;;;;6.35;85.97;100770.97;5110850;28;20034;-70
2022/04/25 02:06:34;;;;;;;14.30;8.43;;;;;;;6.33;86.17;100771.13;5111017;28;20114;-70
2022/04/25 02:09:00;;;;;;;17.65;8.50;;;;;;;6.31;85.79;100764.34;5110803;28;20475;-70
2022/04/25 02:11:25;;;;;;;13.02;7.32;;;;;;;6.23;85.93;100757.25;5110629;28;20035;-70
2022/04/25 02:13:52;;;;;;;14.07;6.78;;;;;;;6.26;85.93;100769.31;5110699;28;20022;-70
2022/04/25 02:16:21;;;;;;;13.80;7.57;;;;;;;6.18;86.01;100762.22;5110683;28;20589;-70
2022/04/25 02:18:50;;;;;;;15.70;7.45;;;;;;;6.13;86.21;100754.81;5110530;28;20028;-70
2022/04/25 02:21:16;;;;;;;12.48;7.00;;;;;;;6.18;86.51;100774.63;5110444;28;20028;-70
2022/04/25 02:23:42;;;;;;;14.60;7.43;;;;;;;6.10;86.82;100762.25;5110311;28;20072;-70
2022/04/25 02:26:08;;;;;;;15.65;8.13;;;;;;;6.11;86.60;100766.56;5110172;28;20027;-70
2022/04/25 02:28:34;;;;;;;15.95;7.55;;;;;;;6.10;86.87;100768.41;5110526;28;20157;-70
2022/04/25 02:31:01;;;;;;;15.05;7.70;;;;;;;6.08;87.18;100761.63;5110286;28;20067;-70
2022/04/25 02:33:27;;;;;;;15.52;9.45;;;;;;;6.06;87.31;100764.41;5110443;28;20032;-70
2022/04/25 02:35:53;;;;;;;13.30;6.72;;;;;;;6.02;87.10;100762.28;5110212;28;20106;-70
2022/04/25 02:38:18;;;;;;;15.35;6.85;;;;;;;5.98;87.46;100759.16;5101241;28;20127;-70
2022/04/25 02:40:44;;;;;;;17.60;7.68;;;;;;;5.99;87.49;100765.25;5107306;28;20471;-70
2022/04/25 02:43:09;;;;;;;16.90;7.95;;;;;;;5.99;87.42;100759.97;5109405;28;20031;-70
2022/04/25 02:45:35;;;;;;;15.55;7.28;;;;;;;5.97;87.52;100767.25;5110216;28;20031;-70
2022/04/25 02:48:00;;;;;;;16.85;9.70;;;;;;;5.95;87.52;100769.22;5106615;28;20076;-70
2022/04/25 02:50:26;;;;;;;14.32;6.78;;;;;;;5.86;87.93;100752.50;5090517;28;20502;-70
2022/04/25 02:52:53;;;;;;;17.88;8.00;;;;;;;5.89;87.96;100768.06;5089238;28;20111;-70
2022/04/25 02:55:19;;;;;;;19.17;7.88;;;;;;;5.86;88.06;100757.81;5090468;28;20032;-70
2022/04/25 02:57:45;;;;;;;15.45;7.13;;;;;;;5.85;88.05;100756.97;5109675;28;20024;-70
2022/04/25 03:00:11;;;;;;;18.42;9.13;;;;;;;5.84;88.32;100758.00;5109805;28;20027;-70
2022/04/25 03:02:36;;;;;;;15.18;8.20;;;;;;;5.82;88.20;100762.63;5109842;28;20031;-70
2022/04/25 03:05:02;;;;;;;17.73;7.68;;;;;;;5.81;88.58;100771.53;5110904;28;20062;-70
2022/04/25 03:07:27;;;;;;;17.38;8.20;;;;;;;5.81;88.65;100765.41;5109550;28;20042;-70
2022/04/25 03:09:53;;;;;;;14.52;7.65;;;;;;;5.70;88.19;100753.38;5109936;28;20094;-70
2022/04/25 03:12:18;;;;;;;17.58;8.10;;;;;;;5.76;88.58;100767.75;5109671;28;20035;-70
2022/04/25 03:14:45;;;;;;;17.13;8.52;;;;;;;5.70;88.98;100763.94;5108347;28;20085;-70
2022/04/25 03:17:11;;;;;;;15.00;8.05;;;;;;;5.74;88.85;100770.56;5109406;28;20112;-70
2022/04/25 03:19:37;;;;;;;17.40;8.18;;;;;;;5.74;88.61;100765.28;5109310;28;20049;-70
2022/04/25 03:22:03;;;;;;;18.88;9.23;;;;;;;5.74;89.04;100767.06;5109413;28;20024;-72
2022/04/25 03:24:30;;;;;;;17.52;8.75;;;;;;;5.74;89.03;100770.56;5109417;28;20091;-70
2022/04/25 03:26:55;;;;;;;17.00;9.38;;;;;;;5.72;89.00;100775.19;5109375;28;20039;-70
2022/04/25 03:29:20;;;;;;;16.40;8.13;;;;;;;5.69;89.36;100773.72;5109258;28;20040;-70
2022/04/25 03:31:46;;;;;;;13.77;8.43;;;;;;;5.65;89.35;100764.44;5108862;28;20027;-70
2022/04/25 03:34:11;;;;;;;19.10;8.52;;;;;;;5.62;89.59;100775.34;5109222;28;20027;-71
2022/04/25 03:36:37;;;;;;;18.33;8.38;;;;;;;5.63;89.49;100774.38;5109954;28;20119;-70
2022/04/25 03:39:03;;;;;;;19.33;8.90;;;;;;;5.61;89.68;100776.38;5109822;28;20032;-70
2022/04/25 03:41:31;;;;;;;16.02;7.63;;;;;;;5.59;90.00;100772.22;5111054;28;20508;-70
2022/04/25 03:43:56;;;;;;;15.73;7.25;;;;;;;5.55;89.71;100770.91;5109242;28;20080;-70
2022/04/25 03:46:22;;;;;;;18.77;9.20;;;;;;;5.58;89.71;100779.34;5109176;28;20624;-70
2022/04/25 03:48:47;;;;;;;18.65;9.73;;;;;;;5.55;89.95;100777.00;5109169;28;20063;-70
2022/04/25 03:51:12;;;;;;;18.98;8.95;;;;;;;5.45;89.62;100761.31;5109403;28;20027;-70
2022/04/25 03:53:38;;;;;;;17.13;8.52;;;;;;;5.53;89.80;100775.53;5108369;28;20032;-70
2022/04/25 03:58:48;;;;;;;18.00;8.65;;;;;;;5.47;90.19;100774.38;5113447;28;20043;-70
2022/04/25 04:01:14;;;;;;;15.20;9.05;;;;;;;5.45;89.84;100779.84;5108927;28;20031;-70
2022/04/25 04:03:39;;;;;;;18.02;8.23;;;;;;;5.44;90.05;100780.00;5096620;28;20040;-70
2022/04/25 04:06:05;;;;;;;16.80;8.13;;;;;;;5.43;89.96;100787.09;5093606;28;20028;-70
2022/04/25 04:08:31;;;;;;;17.75;9.30;;;;;;;5.40;90.07;100768.09;5093623;28;20391;-70
2022/04/25 04:10:57;;;;;;;21.10;10.05;;;;;;;5.41;90.42;100786.44;5108731;28;20035;-70
2022/04/25 04:13:24;;;;;;;20.08;9.32;;;;;;;5.39;90.34;100791.06;5111744;28;20032;-70
2022/04/25 04:15:50;;;;;;;17.17;8.80;;;;;;;5.38;90.62;100793.88;5112915;28;20031;-70
2022/04/25 04:18:15;;;;;;;22.33;10.27;;;;;;;5.37;90.65;100794.84;5112778;28;20107;-70
2022/04/25 04:20:41;;;;;;;19.52;9.95;;;;;;;5.33;90.99;100801.47;5112904;28;20435;-70
2022/04/25 04:23:06;;;;;;;17.13;9.25;;;;;;;5.35;90.95;100804.78;5112881;27;20115;-70
2022/04/25 04:25:32;;;;;;;18.20;8.70;;;;;;;5.33;91.05;100802.31;5112733;28;20038;-70
2022/04/25 04:27:58;;;;;;;17.67;8.90;;;;;;;5.33;90.99;100807.59;5112739;28;20024;-70
2022/04/25 04:30:23;;;;;;;21.20;9.52;;;;;;;5.35;91.37;100807.44;5112732;28;20095;-70
2022/04/25 04:32:51;;;;;;;19.85;9.88;;;;;;;5.35;91.61;100802.16;5112552;28;20028;-72
2022/04/25 04:38:03;;;;;;;19.10;9.20;;;;;;;5.37;91.77;100797.50;5112606;28;20567;-70
2022/04/25 04:40:28;;;;;;;17.88;10.40;;;;;;;5.43;91.99;100813.56;5094109;28;20036;-70
2022/04/25 04:42:54;;;;;;;19.17;10.05;;;;;;;5.47;91.83;100812.22;5092961;28;20379;-70
2022/04/25 04:45:20;;;;;;;20.45;9.05;;;;;;;5.52;92.23;100814.38;5112235;28;20042;-70
2022/04/25 04:47:45;;;;;;;21.20;9.23;;;;;;;5.56;92.53;100821.00;5112289;28;20043;-70
2022/04/25 04:50:15;;;;;;;19.05;10.00;;;;;;;5.63;92.47;100810.56;5112324;28;20054;-70
2022/04/25 04:53:01;;;;;;;21.40;10.55;;;;;;;5.69;93.02;100815.22;5092693;28;20088;-70
2022/04/25 04:55:27;;;;;;;19.60;10.68;;;;;;;5.71;92.10;100819.34;5092181;28;20519;-70
2022/04/25 04:57:53;;;;;;;22.65;11.80;;;;;;;5.79;92.59;100825.63;5111687;28;20028;-70
2022/04/25 05:00:21;;;;;;;20.15;11.07;;;;;;;5.86;92.64;100831.91;5112000;28;20032;-70
2022/04/25 05:02:47;;;;;;;18.13;9.60;;;;;;;5.90;91.97;100825.31;5112130;28;20394;-70
2022/04/25 05:05:13;;;;;;;22.30;9.38;;;;;;;6.05;92.27;100833.41;5111419;28;20034;-70
2022/04/25 05:07:39;;;;;;;21.63;10.95;;;;;;;6.14;92.08;100832.41;5112146;28;20028;-70
2022/04/25 05:10:06;;;;;;;20.92;10.68;;;;;;;6.24;91.78;100840.19;5092174;28;20024;-70
2022/04/25 05:12:46;;;;;;;22.58;10.07;;;;;;;6.33;92.00;100844.47;5092623;28;20071;-70
2022/04/25 05:15:13;;;;;;;21.15;9.63;;;;;;;6.47;91.29;100841.13;5111483;28;20120;-70
2022/04/25 05:17:41;;;;;;;21.20;9.98;;;;;;;6.58;91.10;100846.06;5092295;28;20648;-70
2022/04/25 05:20:07;;;;;;;19.70;9.32;;;;;;;6.72;90.43;100849.81;5111098;28;20059;-70
2022/04/25 05:22:33;;;;;;;20.02;9.00;;;;;;;6.92;88.63;100847.59;5091739;28;20058;-70
2022/04/25 05:24:59;;;;;;;20.73;10.93;;;;;;;6.97;89.28;100847.06;5092104;28;20056;-70
2022/04/25 05:27:24;;;;;;;20.00;11.02;;;;;;;7.03;89.01;100847.19;5097143;28;20024;-73
2022/04/25 05:29:49;;;;;;;19.95;10.27;;;;;;;7.21;88.24;100857.53;5106072;28;20031;-70
2022/04/25 05:32:15;;;;;;;20.98;9.80;;;;;;;7.27;88.18;100856.00;5109961;28;20046;-70
2022/04/25 05:34:40;;;;;;;21.80;11.02;;;;;;;7.34;88.06;100850.84;5111885;28;20042;-70
2022/04/25 05:37:05;;;;;;;19.33;9.93;;;;;;;7.34;88.22;100858.81;5111933;28;20039;-70
2022/04/25 05:39:32;;;;;;;19.40;10.50;;;;;;;7.30;87.39;100855.66;5100554;28;20118;-70
2022/04/25 05:41:58;;;;;;;20.95;10.43;;;;;;;7.28;87.98;100864.78;5091521;28;20056;-70
2022/04/25 05:44:24;;;;;;;23.05;10.98;;;;;;;7.26;87.63;100878.25;5091819;28;20056;-70
2022/04/25 05:46:50;;;;;;;21.60;9.90;;;;;;;7.19;88.01;100880.75;5091455;28;20093;-70
2022/04/25 05:51:59;;;;;;;20.55;9.35;;;;;;;7.10;88.62;100878.31;5111363;28;20082;-70
2022/04/25 05:54:26;;;;;;;21.35;10.32;;;;;;;6.99;88.26;100877.69;5111146;28;20051;-70
2022/04/25 05:56:52;;;;;;;20.45;10.02;;;;;;;7.04;89.29;100885.13;5110879;28;20023;-70
2022/04/25 05:59:17;;;;;;;21.38;10.40;;;;;;;6.95;88.79;100872.94;5097819;28;20479;-70
2022/04/25 06:01:43;;;;;;;20.08;10.65;;;;;;;7.06;88.70;100890.28;5091305;28;20062;-70
2022/04/25 06:04:08;;;;;;;20.15;11.73;;;;;;;7.07;89.44;100886.63;5091242;28;20024;-70
2022/04/25 06:06:33;;;;;;;21.60;11.18;;;;;;;7.16;88.86;100885.59;5091306;28;20016;-72
2022/04/25 06:08:59;;;;;;;20.48;11.38;;;;;;;7.24;89.32;100880.25;5090704;28;20040;-70
2022/04/25 06:11:24;;;;;;;22.63;11.43;;;;;;;7.36;90.08;100878.84;5091120;28;20471;-70
2022/04/25 06:13:50;;;;;;;23.45;11.70;;;;;;;7.55;89.68;100879.41;5091075;28;20036;-72
2022/04/25 06:16:16;;;;;;;19.30;10.88;;;;;;;7.76;88.19;100889.38;5090112;28;20024;-70
2022/04/25 06:18:41;;;;;;;23.55;11.57;;;;;;;7.81;87.05;100887.03;5089631;28;20039;-70
2022/04/25 06:21:07;;;;;;;24.58;11.07;;;;;;;7.86;87.64;100890.78;5091057;28;20027;-70
2022/04/25 06:23:32;;;;;;;18.67;11.00;;;;;;;7.94;87.31;100894.34;5091023;28;20038;-71
2022/04/25 06:25:58;;;;;;;24.55;11.13;;;;;;;7.97;86.60;100894.03;5089602;28;20032;-70
2022/04/25 06:28:24;;;;;;;21.00;11.57;;;;;;;7.86;86.79;100895.28;5090954;28;20093;-70
2022/04/25 06:30:51;;;;;;;24.90;13.50;;;;;;;7.73;87.84;100889.72;5110367;28;20042;-70
2022/04/25 06:33:16;;;;;;;23.38;11.32;;;;;;;7.78;87.09;100897.97;5090748;28;20036;-71
2022/04/25 06:35:42;;;;;;;24.25;12.63;;;;;;;7.74;87.68;100904.66;5090795;28;20035;-70
2022/04/25 06:38:07;;;;;;;23.52;11.90;;;;;;;7.76;87.98;100911.44;5090615;28;20391;-70
2022/04/25 06:40:33;;;;;;;20.35;11.45;;;;;;;7.74;88.86;100904.66;5090613;28;20471;-71
2022/04/25 06:42:59;;;;;;;24.13;12.27;;;;;;;7.75;88.60;100907.13;5090360;28;20024;-70
2022/04/25 06:45:24;;;;;;;22.08;11.65;;;;;;;7.79;88.67;100911.06;5093255;28;20027;-69
2022/04/25 06:47:50;;;;;;;24.48;12.27;;;;;;;7.83;87.70;100916.84;5100077;28;20052;-71
2022/04/25 06:50:15;;;;;;;22.50;14.57;;;;;;;7.73;88.06;100909.13;5091771;28;20371;-70
2022/04/25 06:52:41;;;;;;;22.65;12.30;;;;;;;7.65;88.88;100895.91;5104167;28;20097;-70
2022/04/25 06:55:07;;;;;;;20.50;11.02;;;;;;;7.69;88.77;100915.78;5109713;28;20032;-70
2022/04/25 06:57:33;;;;;;;23.55;12.27;;;;;;;7.71;88.56;100908.50;5109550;28;20024;-71
2022/04/25 07:00:00;;;;;;;28.48;12.82;;;;;;;7.74;88.01;100916.09;5109777;28;20027;-70
2022/04/25 07:02:25;;;;;;;22.83;12.43;;;;;;;7.69;88.58;100910.47;5109845;28;20031;-71
2022/04/25 07:04:51;;;;;;;23.80;12.77;;;;;;;7.73;89.06;100921.56;5098856;28;20028;-70
2022/04/25 07:07:17;;;;;;;23.10;12.32;;;;;;;7.70;89.20;100920.09;5090191;28;20020;-70
2022/04/25 07:09:43;;;;;;;27.08;12.25;;;;;;;7.67;88.98;100920.44;5090234;28;20498;-71
2022/04/25 07:12:09;;;;;;;22.63;11.02;;;;;;;7.63;89.21;100921.81;5109450;28;20067;-70
2022/04/25 07:14:34;;;;;;;25.33;12.25;;;;;;;7.65;89.51;100927.75;5099888;28;20038;-71
2022/04/25 07:17:02;;;;;;;23.30;13.32;;;;;;;7.62;90.35;100928.09;5107218;28;20402;-70
2022/04/25 07:19:27;;;;;;;23.13;13.38;;;;;;;7.59;89.92;100931.13;5108309;28;20110;-70
2022/04/25 07:30:05;;;;;;;23.27;13.18;;;;;;;7.23;93.66;100936.94;5096657;28;20088;-71
2022/04/25 07:32:32;;;;;;;24.52;13.55;;;;;;;7.10;94.05;100926.91;5095172;28;20058;-71
2022/04/25 07:34:58;;;;;;;25.95;13.65;;;;;;;7.10;95.49;100941.97;5102496;28;20046;-71
2022/04/25 07:37:24;;;;;;;25.10;13.88;;;;;;;7.07;96.12;100937.00;5105795;28;20024;-71
2022/04/25 07:39:51;;;;;;;24.60;12.60;;;;;;;6.94;96.40;100937.53;5099885;28;20066;-72
2022/04/25 07:42:18;;;;;;;26.45;14.07;;;;;;;6.94;95.61;100945.50;5092988;28;20031;-71
2022/04/25 07:44:44;;;;;;;24.17;14.25;;;;;;;6.92;96.99;100950.97;5109070;28;20057;-71
2022/04/25 07:47:10;;;;;;;27.48;14.80;;;;;;;6.89;97.53;100953.97;5100085;28;20096;-71
2022/04/25 07:49:35;;;;;;;25.50;14.80;;;;;;;6.91;97.94;100956.44;5098981;28;20506;-71
2022/04/25 07:52:01;;;;;;;24.58;13.50;;;;;;;6.91;98.37;100957.25;5104178;28;20098;-71
2022/04/25 07:54:26;;;;;;;26.80;14.75;;;;;;;6.91;98.57;100953.78;5109053;28;20031;-70
2022/04/25 07:56:52;;;;;;;27.88;14.30;;;;;;;6.96;99.12;100962.88;5104272;28;20118;-68
2022/04/25 07:59:19;;;;;;;27.13;15.63;;;;;;;6.99;99.90;100972.31;5089687;28;20028;-70
2022/04/25 08:01:44;;;;;;;26.65;14.20;;;;;;;6.99;99.72;100972.31;5101760;28;20035;-70
2022/04/25 08:04:11;;;;;;;28.00;14.98;;;;;;;6.92;99.58;100966.06;5098571;28;20028;-71
2022/04/25 08:06:37;;;;;;;27.35;14.73;;;;;;;6.99;99.91;100973.16;5099725;28;20024;-71
2022/04/25 08:09:03;;;;;;;25.98;14.63;;;;;;;6.95;99.86;100953.28;5096158;28;20029;-71
2022/04/25 08:11:29;;;;;;;30.17;14.98;;;;;;;7.01;99.53;100968.50;5096251;28;20028;-71
2022/04/25 08:19:22;;;;;;;30.95;15.90;;;;;;;7.10;100.00;100979.94;5092032;28;20119;-72
2022/04/25 08:21:48;;;;;;;29.95;15.60;;;;;;;7.16;100.00;100981.91;5090579;28;20466;-71
2022/04/25 08:24:14;;;;;;;28.85;14.70;;;;;;;7.18;100.00;100979.09;5103430;28;20032;-71
2022/04/25 08:26:40;;;;;;;26.02;15.48;;;;;;;7.21;100.00;100986.69;5097631;28;20097;-71
2022/04/25 08:29:06;;;;;;;27.63;15.07;;;;;;;7.26;100.00;100989.66;5108721;28;20031;-71
2022/04/25 08:31:33;;;;;;;32.25;17.10;;;;;;;7.21;100.00;100984.03;5108608;28;20035;-71
2022/04/25 08:34:00;;;;;;;33.22;18.50;;;;;;;7.25;100.00;100980.84;5092412;28;20498;-71
2022/04/25 08:36:25;;;;;;;30.38;15.93;;;;;;;7.36;100.00;101000.06;5107096;28;20015;-71
2022/04/25 08:38:51;;;;;;;26.55;15.00;;;;;;;7.35;100.00;101001.88;5089722;28;20039;-71
2022/04/25 08:41:39;;;;;;;29.10;16.30;;;;;;;7.35;100.00;101007.19;5107344;28;20089;-71
2022/04/25 08:44:05;;;;;;;32.78;18.90;;;;;;;7.38;100.00;101003.38;5099569;28;20063;-71
2022/04/25 08:46:34;;;;;;;29.92;17.95;;;;;;;7.44;100.00;101007.97;5110251;28;20027;-71
2022/04/25 08:49:03;;;;;;;32.13;17.92;;;;;;;7.47;100.00;101011.13;5104807;28;20476;-71
2022/04/25 08:51:30;;;;;;;33.35;17.92;;;;;;;7.45;100.00;101009.66;5099695;28;20067;-71
2022/04/25 08:53:56;;;;;;;30.60;15.95;;;;;;;7.42;100.00;101013.47;5092838;28;20057;-71
2022/04/25 08:56:25;;;;;;;30.42;17.15;;;;;;;7.37;100.00;101012.34;5092560;28;20024;-71
2022/04/25 08:58:52;;;;;;;25.98;15.05;;;;;;;7.39;100.00;101018.31;5092676;28;20138;-71
2022/04/25 09:01:17;;;;;;;29.08;16.42;;;;;;;7.38;100.00;101020.09;5097539;28;20028;-71
2022/04/25 09:03:43;;;;;;;26.60;14.90;;;;;;;7.42;100.00;101023.25;5103709;28;20040;-71
2022/04/25 09:06:09;;;;;;;28.83;14.13;;;;;;;7.45;100.00;101029.03;5111817;28;20119;-71
2022/04/25 09:08:35;;;;;;;28.45;17.00;;;;;;;7.51;100.00;101029.34;5111928;28;20584;-71
2022/04/25 09:13:45;;;;;;;26.40;15.05;;;;;;;7.62;100.00;101024.50;5112085;28;20043;-71
2022/04/25 09:16:14;;;;;;;25.38;13.60;;;;;;;7.74;100.00;101040.88;5109617;28;20036;-71
2022/04/25 09:18:40;;;;;;;26.00;14.32;;;;;;;7.76;100.00;101044.19;5096963;28;20043;-71
2022/04/25 09:21:06;;;;;;;26.15;14.75;;;;;;;7.67;99.84;101032.75;5092271;28;20040;-71
2022/04/25 09:23:32;;;;;;;23.95;13.38;;;;;;;7.72;99.44;101048.16;5105443;28;20478;-71
2022/04/25 09:26:28;;;;;;;25.27;13.02;;;;;;;7.69;99.46;101056.50;5094819;28;20365;-71
2022/04/25 09:28:55;;;;;;;26.05;13.90;;;;;;;7.61;98.46;101044.06;5097277;28;20103;-71
2022/04/25 09:31:25;;;;;;;27.98;13.30;;;;;;;7.70;99.03;101058.13;5111616;28;20081;-71
2022/04/25 09:33:51;;;;;;;24.98;13.38;;;;;;;7.70;99.14;101055.47;5102492;28;20390;-71
2022/04/25 09:36:16;;;;;;;24.98;13.93;;;;;;;7.72;99.10;101055.31;5111344;28;20107;-71
2022/04/25 09:38:42;;;;;;;23.80;14.13;;;;;;;7.71;98.21;101054.50;5100613;28;20036;-71
2022/04/25 09:41:10;;;;;;;24.85;13.43;;;;;;;7.66;98.95;101055.00;5095944;28;20521;-71
2022/04/25 09:43:38;;;;;;;24.98;13.02;;;;;;;7.64;98.56;101053.53;5110786;28;20123;-71
2022/04/25 09:46:13;;;;;;;24.15;14.05;;;;;;;7.63;99.76;101058.00;5111038;28;20027;-71
2022/04/25 09:48:41;;;;;;;23.30;13.75;;;;;;;7.64;99.50;101064.13;5104514;28;20389;-71
2022/04/25 09:51:08;;;;;;;23.70;13.63;;;;;;;7.62;100.00;101064.31;5090205;28;20591;-71
2022/04/25 09:53:43;;;;;;;24.98;14.10;;;;;;;7.65;100.00;101061.31;5099612;28;20101;-71
2022/04/25 09:56:17;;;;;;;23.67;13.20;;;;;;;7.64;100.00;101067.63;5093569;28;20039;-71
2022/04/25 09:58:44;;;;;;;24.00;12.07;;;;;;;7.61;100.00;101067.97;5107401;28;20475;-71
2022/04/25 10:01:14;;;;;;;26.02;13.85;;;;;;;7.62;100.00;101071.44;5110648;28;20115;-71
2022/04/25 10:03:41;;;;;;;23.05;12.90;;;;;;;7.58;99.87;101070.97;5107982;28;20433;-71
2022/04/25 10:06:06;;;;;;;26.55;14.38;;;;;;;7.61;100.00;101075.09;5091470;28;20063;-71
2022/04/25 10:08:35;;;;;;;25.45;12.90;;;;;;;7.66;100.00;101080.72;5091453;28;20055;-71
2022/04/25 10:11:09;;;;;;;26.13;14.40;;;;;;;7.65;100.00;101076.41;5095603;28;20544;-71
2022/04/25 10:13:35;;;;;;;22.02;12.63;;;;;;;7.72;98.32;101072.06;5110689;28;20023;-71
2022/04/25 10:16:02;;;;;;;26.00;14.50;;;;;;;7.76;97.57;101093.81;5095757;28;20096;-71
2022/04/25 10:18:31;;;;;;;24.25;12.95;;;;;;;7.74;97.91;101075.38;5099210;28;20020;-71
2022/04/25 10:20:58;;;;;;;23.38;12.38;;;;;;;7.87;99.06;101080.13;5099127;28;20024;-71
2022/04/25 10:23:25;;;;;;;25.95;14.00;;;;;;;7.95;97.45;101084.59;5092884;28;20036;-71
2022/04/25 10:25:56;;;;;;;24.17;13.35;;;;;;;7.94;97.45;101082.91;5096693;28;20028;-72
2022/04/25 10:28:24;;;;;;;;;;;;;;;8.00;96.84;101093.69;5091504;28;20046;-70
2022/04/25 10:30:50;;;;;;;25.73;13.15;;;;;;;7.97;97.23;101088.72;5094851;28;19957;-75
2022/04/25 10:33:20;;;;;;;25.65;14.40;;;;;;;8.04;97.02;101095.00;5097212;28;20036;-72
2022/04/25 10:35:48;;;;;;;21.63;13.07;;;;;;;8.03;96.53;101092.50;5090808;28;20043;-71
2022/04/25 10:38:49;;;;;;;25.55;13.02;;;;;;;8.01;98.12;101095.31;5103232;28;20023;-72
2022/04/25 10:44:18;;;;;;;26.13;13.88;;;;;;;8.03;96.56;101106.63;5109914;28;20151;-71
2022/04/25 10:47:05;;;;;;;25.52;13.55;;;;;;;8.02;96.92;101110.28;5103832;28;20061;-71
2022/04/25 10:49:34;;;;;;;27.75;13.13;;;;;;;8.03;97.17;101113.75;5107010;28;20043;-71
2022/04/25 10:52:00;;;;;;;25.55;15.20;;;;;;;8.03;96.75;101116.41;5090527;28;20040;-72
2022/04/25 10:54:28;;;;;;;25.13;13.40;;;;;;;8.04;97.63;101108.28;5089142;28;20016;-72
2022/04/25 10:57:14;;;;;;;27.77;15.45;;;;;;;8.06;97.47;101116.88;5090270;28;20351;-71
2022/04/25 10:59:39;;;;;;;27.45;15.20;;;;;;;8.11;96.77;101119.03;5109939;28;20032;-72
2022/04/25 11:02:20;;;;;;;26.88;14.88;;;;;;;8.16;96.97;101121.16;5109105;28;20031;-72
2022/04/25 11:04:45;;;;;;;27.25;14.70;;;;;;;8.23;96.37;101120.31;5103423;28;20067;-71
2022/04/25 11:07:22;;;;;;;25.83;13.68;;;;;;;8.34;95.55;101121.72;5098064;28;20051;-71
2022/04/25 11:09:48;;;;;;;24.80;14.57;;;;;;;8.38;95.36;101116.88;5109344;28;20414;-71
2022/04/25 11:12:14;;;;;;;27.70;15.13;;;;;;;8.47;94.39;101129.16;5109433;28;20028;-71
2022/04/25 11:15:00;;;;;;;29.88;15.82;;;;;;;8.42;94.39;101120.88;5109553;28;20399;-71
2022/04/25 11:17:26;;;;;;;24.13;13.70;;;;;;;8.46;94.56;101116.84;5108290;28;20024;-71
2022/04/25 11:19:56;;;;;;;27.75;14.65;;;;;;;8.55;95.22;101126.44;5109488;28;20027;-71
2022/04/25 11:22:48;;;;;;;27.67;15.80;;;;;;;8.60;94.73;101120.63;5108133;28;20028;-71
2022/04/25 11:25:19;;;;;;;31.23;14.85;;;;;;;8.64;95.10;101122.72;5110302;28;20019;-72
2022/04/25 11:28:04;;;;;;;27.45;15.25;;;;;;;8.73;94.68;101132.31;5109598;28;20024;-71
2022/04/25 11:30:30;;;;;;;27.08;15.48;;;;;;;8.76;94.64;101118.66;5093819;28;20020;-72
2022/04/25 11:33:07;;;;;;;28.42;15.18;;;;;;;8.90;93.10;101132.16;5093042;28;20028;-71
2022/04/25 11:35:33;;;;;;;26.02;14.35;;;;;;;8.94;91.73;101128.16;5093909;28;20471;-71
2022/04/25 11:37:59;;;;;;;27.65;12.75;;;;;;;9.00;91.71;101138.91;5092035;28;20049;-68
2022/04/25 11:40:26;;;;;;;22.65;12.48;;;;;;;9.03;91.76;101140.38;5094427;28;20024;-73
2022/04/25 11:42:52;;;;;;;23.73;13.15;;;;;;;9.03;91.04;101142.22;5093585;28;20039;-70
2022/04/25 11:45:18;;;;;;;25.77;14.45;;;;;;;9.02;91.68;101141.38;5092249;28;20070;-70
2022/04/25 11:47:44;;;;;;;24.75;12.93;;;;;;;9.07;90.42;101146.19;5094426;28;20048;-73
2022/04/25 11:50:12;;;;;;;28.23;14.77;;;;;;;9.07;90.19;101141.69;5094029;28;20068;-71